Time;durP1;ratioP1;P1;durP2;ratioP2;P2;SDS_P1;SDS_P2;PMS_P1;PMS_P2;Temp;Humidity;BMP_temperature;BMP_pressure;BME280_temperature;BME280_humidity;BME280_pressure;Samples;Min_cycle;Max_cycle;Signal;HPM_P1;HPM_P2
2021/12/16 00:08:34;;;;;;;2.38;1.83;;;;;;;10.79;99.71;102357.94;4995310;28;20025;-69
2021/12/16 00:11:25;;;;;;;6.85;1.80;;;;;;;10.68;100.00;102353.94;4999821;28;20069;-69
2021/12/16 00:30:52;;;;;;;4.53;1.67;;;;;;;10.65;100.00;102343.81;4998178;28;20030;-69
2021/12/16 00:33:15;;;;;;;3.33;2.17;;;;;;;10.78;100.00;102345.56;5010295;28;20549;-69
2021/12/16 00:35:45;;;;;;;4.72;1.88;;;;;;;10.50;100.00;102336.16;5002432;28;20049;-69
2021/12/16 00:38:10;;;;;;;6.05;1.80;;;;;;;10.57;100.00;102344.56;4996411;28;20490;-69
2021/12/16 00:40:40;;;;;;;9.40;2.28;;;;;;;10.67;100.00;102330.00;4996683;28;20037;-69
2021/12/16 00:43:20;;;;;;;4.20;1.77;;;;;;;10.76;100.00;102337.00;5011021;28;20380;-69
2021/12/16 00:46:12;;;;;;;5.05;2.20;;;;;;;10.77;100.00;102341.31;5005426;28;20040;-69
2021/12/16 00:54:14;;;;;;;3.03;1.75;;;;;;;10.52;100.00;102352.00;5004193;28;20048;-69
2021/12/16 00:56:55;;;;;;;3.70;1.73;;;;;;;10.55;100.00;102346.78;4997775;28;20498;-69
2021/12/16 00:59:21;;;;;;;3.42;1.95;;;;;;;10.56;100.00;102345.69;4991575;28;20092;-69
2021/12/16 01:02:06;;;;;;;5.43;2.20;;;;;;;10.73;100.00;102350.31;5004400;28;20042;-69
2021/12/16 01:35:39;;;;;;;3.38;1.77;;;;;;;10.75;100.00;102377.75;4989248;28;20042;-69
2021/12/16 01:41:30;;;;;;;4.35;2.00;;;;;;;10.81;100.00;102380.00;5002947;28;20048;-72
2021/12/16 01:49:46;;;;;;;7.40;3.03;;;;;;;10.58;100.00;102380.38;4937348;28;20039;-69
2021/12/16 01:57:31;;;;;;;7.85;2.50;;;;;;;10.78;100.00;102391.38;5005212;28;20029;-69
2021/12/16 02:00:04;;;;;;;7.63;2.50;;;;;;;10.68;100.00;102390.88;5005412;28;20046;-69
2021/12/16 02:02:51;;;;;;;;;;;;;;;10.61;100.00;102391.31;4991196;28;20281;-69
2021/12/16 02:08:19;;;;;;;5.53;2.50;;;;;;;10.62;100.00;102392.94;4993198;28;20045;-69
2021/12/16 02:10:56;;;;;;;7.07;2.40;;;;;;;10.69;100.00;102379.78;4996723;28;20069;-69
2021/12/16 02:37:34;;;;;;;10.55;3.75;;;;;;;10.73;100.00;102394.22;5006739;28;20060;-70
2021/12/16 02:40:03;;;;;;;7.85;2.70;;;;;;;10.51;100.00;102402.38;5004777;28;20054;-70
2021/12/16 02:42:38;;;;;;;8.52;3.05;;;;;;;10.61;100.00;102396.72;5005048;28;20034;-70
2021/12/16 02:50:36;;;;;;;5.65;2.70;;;;;;;10.88;100.00;102407.25;5003172;28;20068;-70
2021/12/16 02:53:02;;;;;;;8.52;2.60;;;;;;;10.82;100.00;102410.41;5001012;28;20594;-70
2021/12/16 02:55:28;;;;;;;10.07;3.35;;;;;;;10.80;100.00;102408.03;4998933;28;20029;-70
2021/12/16 02:58:00;;;;;;;5.88;2.95;;;;;;;10.79;100.00;102401.06;5006584;28;20033;-69
2021/12/16 03:00:27;;;;;;;8.75;3.40;;;;;;;10.79;100.00;102405.66;5010388;28;20029;-70
2021/12/16 03:02:53;;;;;;;7.57;3.30;;;;;;;10.81;100.00;102411.53;5009039;28;20073;-69
2021/12/16 03:05:21;;;;;;;5.57;2.97;;;;;;;10.71;100.00;102422.59;4993894;28;20065;-70
2021/12/16 03:07:49;;;;;;;12.55;3.97;;;;;;;10.85;100.00;102424.06;5010068;28;20030;-70
2021/12/16 03:10:56;;;;;;;11.88;3.75;;;;;;;10.93;100.00;102424.41;5011927;28;20428;-69
2021/12/16 03:13:21;;;;;;;11.98;3.72;;;;;;;10.64;100.00;102425.75;5012490;28;20107;-70
2021/12/16 03:18:36;;;;;;;14.13;4.53;;;;;;;10.70;100.00;102437.94;5020299;28;20045;-70
2021/12/16 03:21:14;;;;;;;12.10;3.42;;;;;;;10.67;100.00;102441.28;5005522;28;20025;-70
2021/12/16 03:34:28;;;;;;;10.43;4.38;;;;;;;10.83;100.00;102439.75;5003458;28;20052;-70
2021/12/16 03:37:16;;;;;;;9.90;3.75;;;;;;;10.88;100.00;102438.81;5007685;28;20414;-70
2021/12/16 03:39:50;;;;;;;13.15;4.18;;;;;;;10.73;100.00;102434.66;4992814;28;20034;-70
2021/12/16 03:42:29;;;;;;;10.23;3.65;;;;;;;10.75;100.00;102429.75;5005335;28;20188;-70
2021/12/16 03:45:00;;;;;;;7.30;3.97;;;;;;;10.92;100.00;102442.47;5027452;28;20034;-70
2021/12/16 03:47:46;;;;;;;9.07;4.32;;;;;;;10.84;100.00;102430.56;5012646;28;20032;-70
2021/12/16 03:50:21;;;;;;;14.38;4.68;;;;;;;10.92;100.00;102436.31;5003311;28;20091;-69
2021/12/16 03:52:48;;;;;;;10.05;3.30;;;;;;;10.76;100.00;102441.31;5010756;28;20040;-71
2021/12/16 03:55:15;;;;;;;10.30;3.85;;;;;;;10.74;100.00;102432.75;5002228;28;20038;-70
2021/12/16 03:57:42;;;;;;;13.82;3.67;;;;;;;10.93;100.00;102440.56;5009746;28;20125;-70
2021/12/16 04:00:23;;;;;;;14.23;3.88;;;;;;;10.74;100.00;102438.13;5010110;28;20037;-70
2021/12/16 04:02:58;;;;;;;13.75;4.50;;;;;;;10.77;100.00;102442.91;4993387;28;20050;-70
2021/12/16 04:05:29;;;;;;;10.10;3.70;;;;;;;10.72;100.00;102437.66;5001351;28;20041;-69
2021/12/16 04:07:57;;;;;;;14.05;3.88;;;;;;;10.70;100.00;102437.94;5000122;28;20168;-70
2021/12/16 04:10:42;;;;;;;10.50;4.20;;;;;;;10.60;100.00;102443.63;5009487;28;20113;-70
2021/12/16 04:13:15;;;;;;;8.13;3.78;;;;;;;10.57;100.00;102436.16;4992449;28;20117;-70
2021/12/16 04:15:44;;;;;;;10.45;4.60;;;;;;;10.52;100.00;102439.00;4996606;28;20041;-69
2021/12/16 04:18:12;;;;;;;10.43;4.22;;;;;;;10.57;100.00;102448.81;5009726;28;20432;-69
2021/12/16 04:20:39;;;;;;;14.10;4.30;;;;;;;10.61;100.00;102449.78;5021414;28;20123;-70
2021/12/16 04:23:08;;;;;;;16.85;4.95;;;;;;;10.72;100.00;102451.91;5009725;28;20512;-69
2021/12/16 04:25:37;;;;;;;13.98;4.18;;;;;;;10.64;100.00;102466.16;5003308;28;20038;-70
2021/12/16 04:28:12;;;;;;;11.77;4.53;;;;;;;10.70;100.00;102464.13;5016320;28;20057;-71
2021/12/16 04:30:39;;;;;;;25.33;5.07;;;;;;;10.82;100.00;102458.91;5009600;28;20029;-70
2021/12/16 04:33:05;;;;;;;11.98;3.88;;;;;;;10.86;100.00;102457.19;5003168;28;20022;-70
2021/12/16 04:35:33;;;;;;;14.43;4.82;;;;;;;10.61;100.00;102466.75;4999533;28;20033;-70
2021/12/16 04:37:59;;;;;;;12.52;4.43;;;;;;;10.67;100.00;102462.03;5000037;28;20621;-70
2021/12/16 04:40:28;;;;;;;14.70;4.72;;;;;;;10.84;100.00;102470.97;5003620;28;20116;-70
2021/12/16 04:43:02;;;;;;;13.02;4.97;;;;;;;10.67;100.00;102460.13;4999855;28;20038;-70
2021/12/16 04:45:41;;;;;;;20.00;5.03;;;;;;;10.77;100.00;102467.16;5000672;28;20046;-69
2021/12/16 04:48:07;;;;;;;14.50;4.85;;;;;;;10.92;100.00;102466.72;5009894;28;20165;-70
2021/12/16 04:50:37;;;;;;;20.98;5.32;;;;;;;10.62;100.00;102472.94;4996974;28;20052;-70
2021/12/16 04:53:06;;;;;;;14.32;4.80;;;;;;;10.74;100.00;102460.47;5008049;28;20498;-70
2021/12/16 04:55:36;;;;;;;12.15;4.20;;;;;;;10.56;100.00;102476.88;5009072;28;20049;-70
2021/12/16 04:58:02;;;;;;;16.77;5.07;;;;;;;10.74;100.00;102478.56;5005245;28;20036;-70
2021/12/16 05:00:28;;;;;;;17.05;4.80;;;;;;;10.85;100.00;102483.38;5002312;28;20116;-70
2021/12/16 05:03:11;;;;;;;14.07;4.32;;;;;;;10.59;100.00;102478.94;4993892;28;20868;-70
2021/12/16 05:05:38;;;;;;;16.60;5.55;;;;;;;10.77;100.00;102494.09;4998425;28;20038;-70
2021/12/16 05:08:05;;;;;;;19.15;5.38;;;;;;;10.89;100.00;102505.09;4999481;28;20053;-70
2021/12/16 05:10:45;;;;;;;18.98;5.13;;;;;;;10.80;100.00;102498.88;5009130;28;20030;-71
2021/12/16 05:13:17;;;;;;;14.05;4.38;;;;;;;10.87;100.00;102497.31;5007478;28;20036;-69
2021/12/16 05:15:43;;;;;;;16.98;5.85;;;;;;;10.89;100.00;102502.41;5007622;28;20042;-71
2021/12/16 05:18:13;;;;;;;18.08;4.93;;;;;;;10.81;100.00;102511.25;5000013;28;20451;-70
2021/12/16 05:20:47;;;;;;;17.38;5.00;;;;;;;10.80;100.00;102517.75;4993772;28;20433;-69
2021/12/16 05:28:31;;;;;;;15.50;4.57;;;;;;;10.64;100.00;102522.72;5011437;28;20057;-70
2021/12/16 05:30:58;;;;;;;10.13;3.60;;;;;;;10.68;100.00;102529.06;4993676;28;20157;-70
2021/12/16 05:33:24;;;;;;;17.27;4.57;;;;;;;10.76;100.00;102536.41;4995153;28;20411;-70
2021/12/16 05:35:52;;;;;;;12.02;4.07;;;;;;;10.80;100.00;102542.78;5011985;28;20037;-70
2021/12/16 05:38:21;;;;;;;14.43;4.80;;;;;;;10.85;100.00;102537.28;5022908;28;20491;-70
2021/12/16 05:40:47;;;;;;;13.82;4.97;;;;;;;10.74;100.00;102544.00;4997479;28;20112;-70
2021/12/16 05:43:26;;;;;;;17.05;4.88;;;;;;;10.78;100.00;102555.75;5002418;28;20033;-70
2021/12/16 05:45:55;;;;;;;18.40;4.88;;;;;;;10.77;100.00;102546.09;4998747;28;20490;-70
2021/12/16 05:48:24;;;;;;;16.88;4.35;;;;;;;10.66;100.00;102552.88;4993022;28;20034;-70
2021/12/16 05:50:54;;;;;;;12.20;4.40;;;;;;;10.73;100.00;102555.91;5004871;28;20430;-70
2021/12/16 05:53:21;;;;;;;;;;;;;;;10.73;100.00;102553.22;5010327;28;20030;-70
2021/12/16 05:55:50;;;;;;;13.80;3.67;;;;;;;10.67;100.00;102559.81;5008356;28;19924;-70
2021/12/16 05:58:22;;;;;;;17.85;4.35;;;;;;;10.69;100.00;102552.22;5003543;28;20513;-70
2021/12/16 06:01:14;;;;;;;14.27;4.20;;;;;;;10.60;100.00;102556.78;4996234;28;20054;-70
2021/12/16 06:03:41;;;;;;;15.88;3.45;;;;;;;10.52;100.00;102560.22;5005732;28;20120;-71
2021/12/16 06:06:08;;;;;;;18.27;5.05;;;;;;;10.48;100.00;102556.53;5010201;28;20476;-71
2021/12/16 06:08:34;;;;;;;13.73;4.97;;;;;;;10.50;100.00;102562.41;5008753;28;20036;-70
2021/12/16 06:13:44;;;;;;;22.63;6.07;;;;;;;10.57;100.00;102578.94;5000505;28;20033;-70
2021/12/16 06:27:15;;;;;;;13.63;4.00;;;;;;;10.87;100.00;102599.75;5001182;28;20120;-70
2021/12/16 06:29:44;;;;;;;14.30;4.72;;;;;;;10.77;100.00;102583.03;5002913;28;20116;-71
2021/12/16 06:32:11;;;;;;;16.98;4.90;;;;;;;10.95;100.00;102589.31;4995636;28;20038;-70
2021/12/16 06:34:36;;;;;;;13.50;4.07;;;;;;;10.83;100.00;102582.59;4991890;28;20042;-70
2021/12/16 06:37:02;;;;;;;13.68;4.45;;;;;;;10.86;100.00;102590.06;5012071;28;20109;-70
2021/12/16 06:39:28;;;;;;;12.82;4.43;;;;;;;10.93;100.00;102594.22;5004671;28;20498;-70
2021/12/16 06:42:20;;;;;;;9.57;3.30;;;;;;;10.71;100.00;102601.22;5018466;28;20050;-70
2021/12/16 06:44:55;;;;;;;21.17;4.13;;;;;;;10.89;100.00;102619.09;5011836;28;20068;-70
2021/12/16 06:47:29;;;;;;;12.65;4.75;;;;;;;10.78;100.00;102606.19;4997647;28;20069;-71
2021/12/16 06:49:55;;;;;;;11.98;3.83;;;;;;;10.72;100.00;102618.97;4999306;28;20459;-70
2021/12/16 06:52:29;;;;;;;14.40;3.80;;;;;;;10.76;100.00;102633.41;4995347;28;20145;-71
2021/12/16 06:57:25;;;;;;;10.43;4.03;;;;;;;10.92;100.00;102627.69;4999706;28;20029;-69
2021/12/16 06:59:56;;;;;;;13.55;3.72;;;;;;;10.95;100.00;102637.84;4996851;28;20089;-70
2021/12/16 07:02:47;;;;;;;12.85;3.80;;;;;;;10.79;100.00;102640.91;4993811;28;20065;-70
2021/12/16 07:05:15;;;;;;;11.70;3.90;;;;;;;10.80;100.00;102639.03;4987670;28;20052;-69
2021/12/16 07:07:41;;;;;;;9.73;4.53;;;;;;;10.87;100.00;102650.16;4989643;28;20053;-70
2021/12/16 07:10:10;;;;;;;14.45;3.35;;;;;;;10.88;100.00;102649.03;4994096;28;20034;-68
2021/12/16 07:12:37;;;;;;;9.80;3.42;;;;;;;10.87;100.00;102648.25;5002627;28;20117;-70
2021/12/16 07:15:07;;;;;;;8.60;3.83;;;;;;;10.69;100.00;102649.22;4984084;23;20590;-69
2021/12/16 07:17:33;;;;;;;10.85;2.95;;;;;;;10.87;100.00;102663.63;4980991;28;20039;-69
2021/12/16 07:20:01;;;;;;;5.75;2.53;;;;;;;10.84;100.00;102659.63;4980535;28;20042;-68
2021/12/16 07:22:26;;;;;;;12.30;3.83;;;;;;;10.96;100.00;102667.16;4983183;28;20491;-69
2021/12/16 07:24:52;;;;;;;7.80;2.92;;;;;;;10.84;100.00;102675.00;4984189;28;20044;-69
2021/12/16 07:27:18;;;;;;;12.93;3.33;;;;;;;10.94;100.00;102680.16;4984482;28;20041;-69
2021/12/16 07:29:43;;;;;;;7.05;2.63;;;;;;;10.96;100.00;102679.84;4981315;28;20038;-70
2021/12/16 07:32:08;;;;;;;8.15;2.90;;;;;;;11.00;100.00;102687.03;4987449;28;20511;-70
2021/12/16 07:34:34;;;;;;;8.70;3.90;;;;;;;11.04;100.00;102695.28;4979346;28;20039;-71
2021/12/16 07:37:06;;;;;;;8.32;3.03;;;;;;;11.03;100.00;102691.81;4987674;28;20035;-70
2021/12/16 07:39:38;;;;;;;12.98;2.67;;;;;;;11.00;100.00;102688.91;4987426;28;20105;-71
2021/12/16 07:42:05;;;;;;;9.90;2.65;;;;;;;11.00;100.00;102702.41;4984082;28;20034;-72
2021/12/16 07:44:33;;;;;;;6.10;2.75;;;;;;;10.99;100.00;102712.41;4982449;28;20088;-70
2021/12/16 07:47:01;;;;;;;6.88;2.80;;;;;;;11.04;100.00;102706.88;4987723;28;20057;-70
2021/12/16 07:49:32;;;;;;;7.38;2.83;;;;;;;11.03;100.00;102709.88;4980466;28;20030;-72
2021/12/16 07:52:00;;;;;;;10.43;2.60;;;;;;;10.90;100.00;102716.91;4983117;28;20046;-69
2021/12/16 07:54:26;;;;;;;9.60;2.97;;;;;;;11.02;100.00;102719.06;4983289;28;20042;-70
2021/12/16 07:56:55;;;;;;;8.30;2.47;;;;;;;11.08;100.00;102726.72;4986526;28;20038;-71
2021/12/16 07:59:26;;;;;;;6.35;2.28;;;;;;;11.07;100.00;102740.53;4980316;28;20487;-71
2021/12/16 08:01:53;;;;;;;4.05;2.03;;;;;;;11.04;100.00;102739.22;4983043;28;20031;-71
2021/12/16 08:04:21;;;;;;;6.78;2.65;;;;;;;11.04;100.00;102727.63;4979265;28;20087;-70
2021/12/16 08:06:51;;;;;;;7.60;2.22;;;;;;;10.97;100.00;102722.69;4995616;28;20051;-70
2021/12/16 08:09:18;;;;;;;4.38;2.13;;;;;;;11.06;100.00;102728.13;4979579;28;20026;-70
2021/12/16 08:11:45;;;;;;;9.25;3.00;;;;;;;11.03;100.00;102737.66;4981169;28;20032;-70
2021/12/16 08:14:11;;;;;;;9.15;2.47;;;;;;;11.00;100.00;102748.22;4986852;28;20042;-70
2021/12/16 08:16:38;;;;;;;7.82;2.70;;;;;;;10.95;100.00;102746.47;4984303;28;20094;-69
2021/12/16 08:19:04;;;;;;;5.72;2.38;;;;;;;10.98;100.00;102758.50;4973219;28;20047;-70
2021/12/16 08:21:30;;;;;;;7.00;2.60;;;;;;;11.03;100.00;102759.22;4972442;28;20038;-70
2021/12/16 08:23:59;;;;;;;8.15;2.22;;;;;;;11.02;100.00;102751.41;4981002;28;20681;-70
2021/12/16 08:26:28;;;;;;;4.43;1.80;;;;;;;10.97;100.00;102751.53;4987459;28;20101;-69
2021/12/16 08:28:54;;;;;;;8.07;2.97;;;;;;;11.04;100.00;102749.22;4978597;28;20038;-69
2021/12/16 08:31:20;;;;;;;13.82;3.10;;;;;;;11.04;100.00;102749.22;4986270;28;20042;-70
2021/12/16 08:33:46;;;;;;;7.80;2.40;;;;;;;11.07;100.00;102756.72;4980650;28;20057;-70
2021/12/16 08:36:13;;;;;;;8.32;2.40;;;;;;;11.04;100.00;102760.00;4981310;28;20038;-69
2021/12/16 08:38:39;;;;;;;4.75;2.25;;;;;;;11.14;100.00;102751.66;4975857;28;20514;-69
2021/12/16 08:41:12;;;;;;;7.93;2.60;;;;;;;11.10;100.00;102748.78;4975494;28;20050;-69
2021/12/16 08:43:40;;;;;;;5.88;1.77;;;;;;;10.99;100.00;102757.44;4977619;28;20038;-72
2021/12/16 08:46:07;;;;;;;4.35;2.00;;;;;;;11.06;100.00;102761.28;4980985;28;20138;-71
2021/12/16 08:48:34;;;;;;;4.18;2.08;;;;;;;11.10;100.00;102772.25;4972352;28;20045;-69
2021/12/16 08:50:59;;;;;;;6.68;2.67;;;;;;;11.07;100.00;102779.06;4979858;28;20030;-71
2021/12/16 08:53:25;;;;;;;7.72;2.72;;;;;;;11.05;100.00;102775.09;4982135;28;20046;-70
2021/12/16 08:55:54;;;;;;;5.53;2.17;;;;;;;11.00;100.00;102772.50;4982643;28;20050;-71
2021/12/16 08:58:24;;;;;;;4.30;1.90;;;;;;;11.04;100.00;102770.78;4983477;28;20034;-70
2021/12/16 09:00:56;;;;;;;12.05;2.47;;;;;;;11.11;100.00;102776.56;4979186;28;20050;-70
2021/12/16 09:03:22;;;;;;;7.80;2.20;;;;;;;11.15;100.00;102778.31;4984940;28;20566;-70
2021/12/16 09:05:48;;;;;;;9.52;2.80;;;;;;;11.08;100.00;102787.94;4986290;28;20047;-69
2021/12/16 09:08:13;;;;;;;5.57;1.88;;;;;;;11.20;100.00;102791.72;4987226;28;20512;-70
2021/12/16 09:10:39;;;;;;;6.80;1.77;;;;;;;11.21;100.00;102795.19;4984367;28;20038;-69
2021/12/16 09:13:10;;;;;;;11.05;2.03;;;;;;;11.14;100.00;102805.59;4980994;28;20494;-70
2021/12/16 09:15:49;;;;;;;4.97;1.85;;;;;;;11.35;100.00;102801.31;4981688;28;20050;-70
2021/12/16 09:18:18;;;;;;;7.88;2.20;;;;;;;11.22;100.00;102799.50;4975439;28;20046;-70
2021/12/16 09:20:44;;;;;;;5.88;2.20;;;;;;;11.25;100.00;102793.47;4981874;28;20113;-70
2021/12/16 09:23:12;;;;;;;5.70;1.80;;;;;;;11.41;100.00;102789.31;4982794;28;20149;-71
2021/12/16 09:25:40;;;;;;;3.55;1.25;;;;;;;11.24;100.00;102781.09;4982140;28;20038;-69
2021/12/16 09:28:06;;;;;;;2.53;1.40;;;;;;;11.25;100.00;102779.97;4983832;28;20026;-71
2021/12/16 09:30:34;;;;;;;5.75;1.63;;;;;;;11.32;100.00;102777.66;4985957;28;20145;-70
2021/12/16 09:33:05;;;;;;;6.35;1.88;;;;;;;11.28;100.00;102790.19;4984408;28;20116;-69
2021/12/16 09:35:35;;;;;;;2.05;1.20;;;;;;;11.38;100.00;102798.03;4979684;28;20035;-71
2021/12/16 09:38:04;;;;;;;2.13;1.30;;;;;;;11.24;100.00;102803.47;4984791;28;20042;-69
2021/12/16 09:40:30;;;;;;;2.95;1.00;;;;;;;11.32;100.00;102804.66;4983300;28;20038;-70
2021/12/16 09:42:59;;;;;;;2.47;1.10;;;;;;;11.24;100.00;102797.28;4975028;28;20038;-70
2021/12/16 09:45:25;;;;;;;3.35;1.30;;;;;;;11.40;100.00;102798.53;4982032;28;20049;-69
2021/12/16 09:47:51;;;;;;;1.75;1.08;;;;;;;11.56;100.00;102808.63;4980437;28;20038;-69
2021/12/16 09:50:23;;;;;;;3.47;1.60;;;;;;;11.60;100.00;102809.59;4972012;28;20038;-69
2021/12/16 09:52:49;;;;;;;1.77;0.90;;;;;;;11.61;100.00;102821.97;4979840;28;20124;-69
2021/12/16 09:55:14;;;;;;;3.67;1.08;;;;;;;11.47;100.00;102828.56;4981587;28;20094;-69
2021/12/16 09:57:40;;;;;;;1.52;1.02;;;;;;;11.51;100.00;102813.34;4985867;28;20030;-69
2021/12/16 10:00:09;;;;;;;4.00;0.93;;;;;;;11.66;100.00;102816.50;4980822;28;20034;-69
2021/12/16 10:02:35;;;;;;;2.13;1.23;;;;;;;11.64;100.00;102817.88;4981934;28;20373;-69
2021/12/16 10:05:02;;;;;;;2.35;1.10;;;;;;;11.61;100.00;102823.91;4976215;28;20035;-69
2021/12/16 10:07:33;;;;;;;4.85;1.33;;;;;;;11.74;100.00;102826.56;4979284;28;20117;-69
2021/12/16 10:10:00;;;;;;;2.50;0.90;;;;;;;11.79;100.00;102815.63;4981896;28;20081;-70
2021/12/16 10:12:31;;;;;;;2.70;1.30;;;;;;;11.88;100.00;102834.56;4973446;28;20132;-70
2021/12/16 10:17:30;;;;;;;1.08;0.60;;;;;;;12.04;100.00;102843.06;4974900;28;20037;-70
2021/12/16 10:20:04;;;;;;;3.20;1.17;;;;;;;11.94;100.00;102837.94;4977207;28;20088;-70
2021/12/16 10:22:39;;;;;;;3.00;0.90;;;;;;;12.04;100.00;102833.06;4979947;28;20486;-70
2021/12/16 10:25:28;;;;;;;1.85;1.10;;;;;;;12.12;100.00;102836.91;4977732;28;20034;-70
2021/12/16 10:27:59;;;;;;;5.13;1.77;;;;;;;11.99;100.00;102830.50;4973340;28;20511;-70
2021/12/16 10:30:54;;;;;;;2.83;1.05;;;;;;;12.10;100.00;102834.50;4980881;28;20105;-70
2021/12/16 10:33:37;;;;;;;6.05;1.35;;;;;;;12.01;100.00;102840.97;4965772;28;20052;-70
2021/12/16 10:36:11;;;;;;;2.70;1.23;;;;;;;11.94;100.00;102844.13;4984238;28;20503;-70
2021/12/16 10:39:03;;;;;;;7.97;3.03;;;;;;;11.98;100.00;102852.41;4979764;28;20080;-71
2021/12/16 10:41:42;;;;;;;1.85;0.80;;;;;;;12.03;100.00;102842.28;4984427;28;20570;-71
2021/12/16 10:44:13;;;;;;;3.88;1.13;;;;;;;12.02;100.00;102839.88;4986199;28;20042;-70
2021/12/16 10:46:41;;;;;;;;;;;;;;;11.96;100.00;102841.13;4991563;28;20045;-71
2021/12/16 10:49:11;;;;;;;4.63;0.93;;;;;;;11.97;100.00;102848.91;4987737;28;19928;-71
2021/12/16 10:51:51;;;;;;;2.70;1.20;;;;;;;11.93;100.00;102839.81;4991550;28;20367;-71
2021/12/16 10:54:24;;;;;;;3.50;0.90;;;;;;;11.75;100.00;102840.81;4989355;28;20475;-70
2021/12/16 10:56:54;;;;;;;2.25;1.10;;;;;;;11.72;100.00;102846.84;4989033;28;20034;-70
2021/12/16 10:59:28;;;;;;;3.95;0.90;;;;;;;11.73;100.00;102848.44;4988096;28;20061;-70
2021/12/16 11:02:08;;;;;;;2.13;0.90;;;;;;;11.83;100.00;102852.81;4990586;28;20030;-70
2021/12/16 11:04:37;;;;;;;1.35;0.80;;;;;;;11.97;100.00;102854.31;4989892;28;20042;-70
2021/12/16 11:07:23;;;;;;;2.28;1.00;;;;;;;11.88;100.00;102849.97;4988606;28;20038;-70
2021/12/16 11:10:09;;;;;;;1.33;0.80;;;;;;;11.86;100.00;102852.19;4989703;28;20068;-70
2021/12/16 11:12:43;;;;;;;4.55;1.67;;;;;;;11.98;100.00;102844.31;4989665;28;20038;-70
2021/12/16 11:15:20;;;;;;;2.88;1.20;;;;;;;12.09;99.81;102849.13;4986422;28;20708;-70
2021/12/16 11:17:48;;;;;;;5.60;1.70;;;;;;;12.08;98.93;102852.94;4990416;28;20038;-70
2021/12/16 11:20:28;;;;;;;2.17;1.00;;;;;;;11.94;99.45;102859.53;4988961;28;20034;-70
2021/12/16 11:23:15;;;;;;;1.83;0.82;;;;;;;11.86;99.81;102866.47;4988387;28;20109;-70
2021/12/16 11:25:42;;;;;;;1.35;0.75;;;;;;;11.93;99.81;102874.94;4987161;28;20034;-72
2021/12/16 11:28:20;;;;;;;3.13;0.98;;;;;;;11.94;98.56;102871.13;4990336;28;20045;-70
2021/12/16 11:30:52;;;;;;;2.20;0.90;;;;;;;11.94;98.02;102876.53;4989077;28;20045;-70
2021/12/16 11:33:19;;;;;;;5.40;1.15;;;;;;;11.84;98.98;102871.38;4987837;28;20042;-70
2021/12/16 11:35:56;;;;;;;8.65;1.45;;;;;;;11.94;98.99;102867.63;4988431;28;20030;-70
2021/12/16 11:38:28;;;;;;;4.60;0.80;;;;;;;11.96;98.95;102878.94;4987726;28;20046;-70
2021/12/16 11:41:26;;;;;;;2.92;1.55;;;;;;;11.93;99.30;102880.34;4986890;28;20041;-70
2021/12/16 11:44:18;;;;;;;4.10;1.33;;;;;;;11.95;99.80;102893.53;4984132;28;20030;-70
2021/12/16 11:46:54;;;;;;;6.72;1.75;;;;;;;11.99;98.24;102908.81;4987998;28;20088;-69
2021/12/16 11:49:25;;;;;;;3.90;1.17;;;;;;;11.95;98.67;102904.31;4986270;28;20516;-70
2021/12/16 11:52:07;;;;;;;2.55;1.52;;;;;;;11.97;97.72;102902.91;4987616;28;20030;-70
2021/12/16 11:54:50;;;;;;;8.57;1.77;;;;;;;12.03;97.46;102895.47;4987261;28;20296;-70
2021/12/16 11:57:34;;;;;;;6.32;2.22;;;;;;;11.90;98.24;102902.56;4989471;28;20042;-70
2021/12/16 12:00:19;;;;;;;5.30;2.60;;;;;;;11.86;97.82;102895.38;4987765;28;20046;-70
2021/12/16 12:02:59;;;;;;;7.45;2.28;;;;;;;11.75;97.52;102895.63;4987337;28;20586;-70
2021/12/16 12:05:42;;;;;;;3.70;2.08;;;;;;;11.69;97.81;102901.47;4988312;28;20038;-70
2021/12/16 12:08:20;;;;;;;4.78;2.35;;;;;;;11.66;97.23;102908.25;4987298;28;20499;-70
2021/12/16 12:10:52;;;;;;;5.30;2.45;;;;;;;11.75;97.57;102900.22;4986146;28;20031;-70
2021/12/16 12:13:23;;;;;;;5.80;2.00;;;;;;;11.76;97.55;102894.53;4986984;28;20066;-69
2021/12/16 12:16:04;;;;;;;8.18;2.60;;;;;;;11.72;97.76;102882.75;4985701;28;20053;-70
2021/12/16 12:18:41;;;;;;;6.43;2.60;;;;;;;11.73;97.66;102897.03;4978124;28;20053;-70
2021/12/16 12:21:37;;;;;;;3.58;2.20;;;;;;;11.81;97.65;102885.50;4983206;28;20042;-69
2021/12/16 12:24:05;;;;;;;7.03;2.63;;;;;;;11.65;98.41;102897.75;4982197;28;20054;-70
2021/12/16 12:26:35;;;;;;;7.20;2.20;;;;;;;11.83;97.20;102891.38;4988540;28;20070;-68
2021/12/16 12:29:06;;;;;;;4.38;2.20;;;;;;;11.81;97.85;102909.00;4983462;28;20077;-68
2021/12/16 12:31:35;;;;;;;7.50;2.20;;;;;;;11.84;97.78;102898.38;4987959;28;20749;-71
2021/12/16 12:34:01;;;;;;;3.72;2.15;;;;;;;11.76;98.03;102893.72;4987177;28;20030;-70
2021/12/16 12:36:26;;;;;;;4.53;1.80;;;;;;;11.85;97.26;102891.06;4988947;28;20677;-70
2021/12/16 12:38:52;;;;;;;2.85;1.67;;;;;;;11.95;96.18;102902.44;4990071;28;20049;-69
2021/12/16 12:41:19;;;;;;;7.65;2.10;;;;;;;11.98;96.87;102903.72;4987626;28;20034;-70
2021/12/16 12:43:48;;;;;;;5.13;1.90;;;;;;;12.07;96.43;102909.97;4987473;28;20026;-70
2021/12/16 12:46:13;;;;;;;2.88;1.73;;;;;;;11.97;96.72;102915.63;4968990;28;20782;-71
2021/12/16 12:48:41;;;;;;;5.18;1.77;;;;;;;11.96;97.08;102916.72;4981996;28;20032;-70
2021/12/16 12:51:08;;;;;;;2.33;1.42;;;;;;;11.87;97.75;102905.06;4991587;28;20045;-71
2021/12/16 12:53:49;;;;;;;4.00;1.80;;;;;;;11.97;97.51;102911.00;4970505;28;20170;-71
2021/12/16 12:56:17;;;;;;;8.38;1.58;;;;;;;12.02;96.35;102916.28;4979294;28;20069;-70
2021/12/16 12:58:59;;;;;;;3.85;1.85;;;;;;;11.98;96.04;102914.53;4982061;28;20121;-69
2021/12/16 13:01:43;;;;;;;5.32;1.23;;;;;;;11.90;95.66;102923.34;4981660;28;20049;-70
2021/12/16 13:04:14;;;;;;;6.55;1.20;;;;;;;11.78;96.17;102932.00;4985148;28;20137;-71
2021/12/16 13:07:00;;;;;;;2.53;1.70;;;;;;;11.74;96.07;102928.31;4986742;28;20405;-70
2021/12/16 13:09:40;;;;;;;10.20;2.17;;;;;;;11.67;96.43;102925.25;4985781;28;20442;-70
2021/12/16 13:12:36;;;;;;;5.18;1.92;;;;;;;11.57;97.16;102920.06;4985495;28;20035;-69
2021/12/16 13:15:20;;;;;;;3.90;1.50;;;;;;;11.49;97.07;102913.50;4986441;28;20046;-71
2021/12/16 13:26:35;;;;;;;3.42;1.17;;;;;;;11.37;98.00;102931.31;4957551;28;20046;-71
2021/12/16 13:29:27;;;;;;;4.60;1.42;;;;;;;11.22;98.60;102928.94;4984968;28;20034;-70
2021/12/16 13:32:17;;;;;;;6.15;1.15;;;;;;;11.36;97.76;102927.78;4985584;28;20074;-70
2021/12/16 13:36:00;;;;;;;2.63;1.55;;;;;;;11.25;97.76;102928.31;4999778;28;20031;-70
2021/12/16 13:37:58;;;;;;;3.40;0.95;;;;;;;11.33;97.09;102928.41;4966568;28;20133;-70
2021/12/16 13:40:31;;;;;;;3.28;0.65;;;;;;;11.34;96.92;102926.53;4984469;28;20050;-69
2021/12/16 13:43:12;;;;;;;2.40;1.02;;;;;;;11.19;97.93;102929.56;4978330;28;20041;-70
2021/12/16 13:45:54;;;;;;;2.13;0.70;;;;;;;11.25;97.70;102925.63;4981852;28;20478;-71
2021/12/16 14:07:58;;;;;;;1.05;0.75;;;;;;;11.26;97.40;102919.94;4979158;28;20030;-69
2021/12/16 14:10:34;;;;;;;4.78;0.80;;;;;;;11.32;96.79;102926.84;4979700;28;20035;-70
2021/12/16 14:41:39;;;;;;;5.80;1.35;;;;;;;10.97;98.09;102949.16;4990970;28;20085;-69
2021/12/16 14:47:01;;;;;;;0.95;0.68;;;;;;;10.97;98.74;102965.31;4989647;28;20038;-71
2021/12/16 14:49:49;;;;;;;6.18;0.57;;;;;;;10.86;98.94;102959.31;4983592;28;20121;-72
2021/12/16 14:52:22;;;;;;;6.60;0.95;;;;;;;10.86;99.17;102959.31;4976472;28;20050;-70
2021/12/16 14:55:05;;;;;;;5.72;1.00;;;;;;;10.84;98.86;102961.50;4985157;28;20125;-71
2021/12/16 14:57:36;;;;;;;1.90;1.15;;;;;;;10.94;98.91;102963.22;4985713;28;20062;-69
2021/12/16 15:00:30;;;;;;;;;;;;;;;10.93;98.52;102964.31;4982146;28;20215;-69
2021/12/16 15:03:12;;;;;;;0.52;0.50;;;;;;;10.85;99.04;102963.13;4982110;28;20237;-70
2021/12/16 15:05:48;;;;;;;3.17;0.52;;;;;;;10.94;97.61;102955.13;4990156;28;20026;-69